Darby, MT (59829)

6:10 PM MST on February 05, 2016 (GMT -0700)
Skalkaho | | Change Station
CLOSE
Current Station
Personal Weather Station
Location: Hamilton, MT
Elevation: 4075 ft
Nearby Weather Stations

Elev 4075 ft 46.18 °N, 114.07 °W | Updated 12 seconds ago

Clear
Clear
38.8 °F
Feels Like 39 °F
N
1.8
Wind Variable Wind from NNE
Gusts 2.5 mph

Today
High -- | Low -- °F
--% Chance of Precip.
Yesterday
High -- | Low -- °F
Precip. -- in
Pressure 30.41 in
Visibility 10.0 miles
Clouds Clear
Windchill 39 °F
Dew Point 25 °F
Humidity 58%
Rainfall 0.00 in
Snow Depth Not available.
7:54 AM 5:47 PM
Waning Crescent, 8% visible
METAR KSMN 060055Z AUTO 15005KT 10SM CLR M07/M12 A3041 RMK AO1
Pressure 30.41 in
Visibility 10.0 miles
Clouds Clear
Windchill 39 °F
Dew Point 25 °F
Humidity 58%
Rainfall 0.00 in
Snow Depth Not available.
7:54 AM 5:47 PM
Waning Crescent, 8% visible
METAR KSMN 060055Z AUTO 15005KT 10SM CLR M07/M12 A3041 RMK AO1

10-Day Weather Forecast

Almanac

Astronomy

Feb. 05, 2016 Rise Set
Actual Time
Civil Twilight
Nautical Twilight
Astronomical Twilight
Moon
Length of Visible Light
Length of Day
Tomorrow will be .
, % of the Moon is Illuminated

Today's Extremes

State Highs State Lows

Community

WunderPhotos

Upload Photos

1,890,902 photos uploaded!

WunderBlog® & News

Nearby

Air Quality

  Air Quality AQ Index Pollutant
Not available.

Snow Depth

Station Depth Elevation

Earthquake Activity

City Distance Mag. Time & Date
Minimum magnitude displayed is 2.5.

Coastal Water Temperatures

Place Temperature

Stations

Nearby Weather Stations

Station Location Temp. Windchill Dew Point Humidity Wind Precip. Elev Updated Type
                   

Watches & Warnings

There are currently no watches in effect.